createdAt,value
2017-06-23T00:00:45.807Z,26.20
2017-06-23T00:03:13.383Z,26.20
2017-06-23T00:05:40.948Z,26.20
2017-06-23T00:08:08.503Z,26.20
2017-06-23T00:10:36.067Z,26.20
2017-06-23T00:13:03.597Z,26.10
2017-06-23T00:15:31.179Z,26.10
2017-06-23T00:17:58.710Z,25.90
2017-06-23T00:20:26.303Z,25.90
2017-06-23T00:22:53.863Z,25.60
2017-06-23T00:25:21.415Z,25.60
2017-06-23T00:27:48.975Z,25.50
2017-06-23T00:30:16.539Z,25.50
2017-06-23T00:32:44.088Z,25.50
2017-06-23T00:35:11.655Z,25.50
2017-06-23T00:37:39.210Z,25.30
2017-06-23T00:40:06.771Z,25.00
2017-06-23T00:42:34.327Z,25.00
2017-06-23T00:45:01.887Z,25.00
2017-06-23T00:47:29.429Z,25.10
2017-06-23T00:49:57.004Z,24.90
2017-06-23T00:52:24.565Z,24.70
2017-06-23T00:54:52.119Z,24.10
2017-06-23T00:57:19.684Z,23.90
2017-06-23T00:59:47.229Z,23.80
2017-06-23T01:02:14.804Z,23.70
2017-06-23T01:04:42.364Z,23.60
2017-06-23T01:07:09.919Z,23.40
2017-06-23T01:09:37.479Z,23.20
2017-06-23T01:12:05.035Z,23.30
2017-06-23T01:14:32.599Z,23.20
2017-06-23T01:17:00.160Z,23.40
2017-06-23T01:19:27.695Z,23.30
2017-06-23T01:21:55.270Z,23.10
2017-06-23T01:24:22.835Z,23.30
2017-06-23T01:26:50.391Z,23.20
2017-06-23T01:29:17.958Z,23.00
2017-06-23T01:31:45.507Z,23.20
2017-06-23T01:34:13.066Z,23.00
2017-06-23T01:36:40.630Z,23.00
2017-06-23T01:39:08.187Z,22.60
2017-06-23T01:41:35.744Z,22.60
2017-06-23T01:44:03.308Z,22.50
2017-06-23T01:46:30.849Z,22.60
2017-06-23T01:48:58.430Z,22.80
2017-06-23T01:51:25.987Z,23.10
2017-06-23T01:53:53.519Z,23.10
2017-06-23T01:56:21.099Z,23.30
2017-06-23T01:58:48.655Z,23.40
2017-06-23T02:01:16.214Z,23.50
2017-06-23T02:03:43.779Z,23.10
2017-06-23T02:06:11.302Z,23.10
2017-06-23T02:08:38.895Z,23.10
2017-06-23T02:11:06.455Z,23.20
2017-06-23T02:13:33.998Z,22.80
2017-06-23T02:16:01.576Z,22.40
2017-06-23T02:18:29.131Z,22.30
2017-06-23T02:20:56.692Z,22.40
2017-06-23T02:23:24.246Z,22.30
2017-06-23T02:25:51.808Z,22.30
2017-06-23T02:28:19.375Z,22.00
2017-06-23T02:30:46.904Z,22.00
2017-06-23T02:33:14.488Z,21.90
2017-06-23T02:35:42.043Z,21.80
2017-06-23T02:38:09.604Z,21.90
2017-06-23T02:40:37.160Z,22.00
2017-06-23T02:43:04.695Z,22.10
2017-06-23T02:45:32.221Z,21.70
2017-06-23T02:48:00.559Z,21.10
2017-06-23T02:50:28.115Z,21.10
2017-06-23T02:52:55.675Z,21.00
2017-06-23T02:55:23.232Z,21.40
2017-06-23T02:57:50.792Z,21.90
2017-06-23T03:00:18.358Z,21.90
2017-06-23T03:02:46.007Z,21.90
2017-06-23T03:05:13.567Z,22.20
2017-06-23T03:07:41.131Z,22.40
2017-06-23T03:10:08.688Z,22.50
2017-06-23T03:12:36.247Z,22.70
2017-06-23T03:15:03.807Z,22.70
2017-06-23T03:17:31.376Z,22.40
2017-06-23T03:19:58.923Z,22.30
2017-06-23T03:22:26.455Z,22.20
2017-06-23T03:24:54.047Z,22.20
2017-06-23T03:27:21.591Z,21.90
2017-06-23T03:29:49.166Z,21.70
2017-06-23T03:32:16.723Z,21.80
2017-06-23T03:34:44.276Z,21.70
2017-06-23T03:37:11.835Z,21.80
2017-06-23T03:39:39.394Z,21.90
2017-06-23T03:42:06.951Z,21.70
2017-06-23T03:44:34.510Z,22.10
2017-06-23T03:47:02.076Z,21.90
2017-06-23T03:49:29.635Z,21.80
2017-06-23T03:51:57.187Z,21.70
2017-06-23T03:54:24.751Z,21.80
2017-06-23T03:56:52.312Z,21.90
2017-06-23T03:59:19.854Z,22.20
2017-06-23T04:01:47.427Z,22.60
2017-06-23T04:04:15.146Z,22.70
2017-06-23T04:06:43.471Z,22.90
2017-06-23T04:09:11.023Z,22.90
2017-06-23T04:11:38.583Z,22.90
2017-06-23T04:14:06.118Z,23.00
2017-06-23T04:16:33.707Z,23.20
2017-06-23T04:19:01.260Z,22.90
2017-06-23T04:21:28.818Z,23.20
2017-06-23T04:23:56.380Z,23.10
2017-06-23T04:26:23.949Z,22.70
2017-06-23T04:28:51.487Z,23.00
2017-06-23T04:31:19.059Z,23.20
2017-06-23T04:33:46.615Z,22.90
2017-06-23T04:36:14.174Z,22.40
2017-06-23T04:38:41.730Z,22.70
2017-06-23T04:41:09.275Z,23.00
2017-06-23T04:43:36.852Z,23.30
2017-06-23T04:46:04.411Z,23.20
2017-06-23T04:48:31.967Z,23.00
2017-06-23T04:50:59.532Z,23.30
2017-06-23T04:53:27.191Z,23.40
2017-06-23T04:55:54.751Z,23.10
2017-06-23T04:58:22.306Z,22.90
2017-06-23T05:00:49.867Z,23.10
2017-06-23T05:03:17.427Z,22.90
2017-06-23T05:05:44.988Z,22.90
2017-06-23T05:08:12.514Z,23.10
2017-06-23T05:10:40.035Z,23.40
2017-06-23T05:13:07.667Z,23.50
2017-06-23T05:15:36.095Z,23.80
2017-06-23T05:18:04.426Z,23.30
2017-06-23T05:20:31.980Z,23.30
2017-06-23T05:22:59.511Z,23.60
2017-06-23T05:25:28.823Z,23.90
2017-06-23T05:27:56.483Z,24.00
2017-06-23T05:30:24.860Z,24.10
2017-06-23T05:32:52.537Z,24.30
2017-06-23T05:35:21.015Z,24.40
2017-06-23T05:37:48.579Z,24.60
2017-06-23T05:40:18.130Z,24.50
2017-06-23T05:42:46.447Z,24.40
2017-06-23T05:45:14.112Z,24.40
2017-06-23T05:47:41.884Z,24.40
2017-06-23T05:50:10.363Z,24.40
2017-06-23T05:52:38.011Z,24.40
2017-06-23T05:55:06.155Z,24.20
2017-06-23T05:57:33.756Z,24.20
2017-06-23T06:00:01.317Z,24.00
2017-06-23T06:02:28.880Z,23.90
2017-06-23T06:04:56.430Z,24.00
2017-06-23T06:07:23.994Z,24.00
2017-06-23T06:09:51.523Z,24.00
2017-06-23T06:12:19.116Z,24.00
2017-06-23T06:14:46.687Z,24.00
2017-06-23T06:17:14.232Z,24.10
2017-06-23T06:19:41.763Z,24.20
2017-06-23T06:22:09.355Z,24.20
2017-06-23T06:24:36.911Z,24.10
2017-06-23T06:27:04.471Z,24.20
2017-06-23T06:29:32.847Z,24.40
2017-06-23T06:32:00.513Z,24.30
2017-06-23T06:34:28.075Z,24.20
2017-06-23T06:36:55.622Z,24.30
2017-06-23T06:39:23.184Z,24.40
2017-06-23T06:41:50.743Z,24.40
2017-06-23T06:44:18.287Z,24.50
2017-06-23T06:46:45.864Z,24.40
2017-06-23T06:49:13.415Z,24.40
2017-06-23T06:51:40.975Z,24.50
2017-06-23T06:54:08.536Z,24.40
2017-06-23T06:56:36.102Z,24.10
2017-06-23T06:59:03.628Z,24.20
2017-06-23T07:01:31.211Z,23.90
2017-06-23T07:03:58.767Z,24.00
2017-06-23T07:06:26.331Z,23.80
2017-06-23T07:08:53.873Z,23.20
2017-06-23T07:11:21.452Z,22.80
2017-06-23T07:13:49.000Z,22.90
2017-06-23T07:16:16.563Z,22.60
2017-06-23T07:18:44.127Z,23.00
2017-06-23T07:21:11.685Z,23.10
2017-06-23T07:23:39.239Z,23.20
2017-06-23T07:26:06.807Z,23.20
2017-06-23T07:28:34.360Z,23.30
2017-06-23T07:31:01.905Z,23.60
2017-06-23T07:33:29.480Z,23.90
2017-06-23T07:35:57.039Z,24.10
2017-06-23T07:38:24.580Z,23.80
2017-06-23T07:40:52.155Z,23.80
2017-06-23T07:43:19.715Z,24.10
2017-06-23T07:45:47.276Z,23.80
2017-06-23T07:48:14.831Z,23.80
2017-06-23T07:50:42.363Z,23.90
2017-06-23T07:53:09.952Z,24.30
2017-06-23T07:55:37.507Z,24.40
2017-06-23T07:58:05.078Z,24.40
2017-06-23T08:00:32.611Z,24.80
2017-06-23T08:03:00.189Z,25.00
2017-06-23T08:05:27.728Z,25.10
2017-06-23T08:07:55.303Z,25.00
2017-06-23T08:10:22.969Z,24.70
2017-06-23T08:12:50.527Z,24.60
2017-06-23T08:15:18.084Z,24.40
2017-06-23T08:17:45.639Z,24.40
2017-06-23T08:20:13.205Z,24.20
2017-06-23T08:22:40.862Z,24.30
2017-06-23T08:25:08.411Z,24.70
2017-06-23T08:27:35.986Z,24.90
2017-06-23T08:30:03.539Z,25.10
2017-06-23T08:32:31.082Z,25.40
2017-06-23T08:34:58.655Z,25.40
2017-06-23T08:37:26.215Z,25.30
2017-06-23T08:39:53.767Z,25.50
2017-06-23T08:42:21.335Z,25.80
2017-06-23T08:44:48.895Z,25.50
2017-06-23T08:47:16.556Z,25.20
2017-06-23T08:49:44.227Z,25.00
2017-06-23T08:52:11.875Z,24.70
2017-06-23T08:54:39.547Z,24.30
2017-06-23T08:57:07.196Z,24.60
2017-06-23T08:59:34.859Z,24.60
2017-06-23T09:02:02.420Z,24.50
2017-06-23T09:04:30.148Z,24.20
2017-06-23T09:06:57.844Z,24.30
2017-06-23T09:09:25.539Z,23.70
2017-06-23T09:11:53.973Z,23.60
2017-06-23T09:14:21.671Z,23.60
2017-06-23T09:16:49.326Z,23.30
2017-06-23T09:19:16.935Z,23.10
2017-06-23T09:21:44.665Z,23.20
2017-06-23T09:24:12.280Z,23.30
2017-06-23T09:26:39.856Z,23.20
2017-06-23T09:29:07.515Z,23.20
2017-06-23T09:31:35.271Z,22.70
2017-06-23T09:34:02.945Z,22.50
2017-06-23T09:36:30.495Z,22.80
2017-06-23T09:38:58.127Z,22.90
2017-06-23T09:41:25.808Z,22.70
2017-06-23T09:43:53.483Z,22.90
2017-06-23T09:46:21.043Z,22.90
2017-06-23T09:48:48.587Z,22.60
2017-06-23T09:51:16.177Z,22.40
2017-06-23T09:53:43.783Z,22.30
2017-06-23T09:56:11.492Z,22.70
2017-06-23T09:58:39.148Z,23.20
2017-06-23T10:01:06.791Z,23.20
2017-06-23T10:03:34.363Z,23.10
2017-06-23T10:06:01.919Z,23.30
2017-06-23T10:08:29.505Z,23.00
2017-06-23T10:10:57.143Z,23.20
2017-06-23T10:13:25.686Z,23.10
2017-06-23T10:15:53.283Z,22.80
2017-06-23T10:18:20.946Z,22.50
2017-06-23T10:20:48.507Z,22.30
2017-06-23T10:23:16.054Z,22.20
2017-06-23T10:25:43.627Z,22.20
2017-06-23T10:28:11.184Z,22.10
2017-06-23T10:30:38.739Z,22.00
2017-06-23T10:33:06.299Z,21.90
2017-06-23T10:35:33.842Z,21.80
2017-06-23T10:38:01.375Z,21.50
2017-06-23T10:40:28.975Z,21.50
2017-06-23T10:42:56.521Z,21.60
2017-06-23T10:45:24.094Z,21.50
2017-06-23T10:47:51.654Z,21.50
2017-06-23T10:50:19.218Z,21.90
2017-06-23T10:52:46.771Z,22.20
2017-06-23T10:55:14.312Z,22.20
2017-06-23T10:57:41.892Z,22.10
2017-06-23T11:00:09.551Z,22.00
2017-06-23T11:02:37.092Z,22.00
2017-06-23T11:05:04.635Z,21.80
2017-06-23T11:07:32.183Z,21.80
2017-06-23T11:10:00.490Z,22.50
2017-06-23T11:12:28.074Z,22.50
2017-06-23T11:14:55.623Z,23.10
2017-06-23T11:17:23.183Z,23.50
2017-06-23T11:19:50.744Z,23.90
2017-06-23T11:22:18.293Z,24.60
2017-06-23T11:24:45.864Z,25.30
2017-06-23T11:27:13.427Z,26.10
2017-06-23T11:29:40.979Z,26.60
2017-06-23T11:32:08.535Z,26.70
2017-06-23T11:34:36.195Z,25.90
2017-06-23T11:37:03.755Z,25.70
2017-06-23T11:39:32.651Z,25.40
2017-06-23T11:42:00.202Z,25.10
2017-06-23T11:44:28.261Z,25.10
2017-06-23T11:46:56.755Z,25.20
2017-06-23T11:49:24.827Z,25.20
2017-06-23T11:51:52.388Z,25.10
2017-06-23T11:54:19.947Z,24.60
2017-06-23T11:56:47.503Z,24.30
2017-06-23T11:59:15.050Z,24.40
2017-06-23T12:01:42.591Z,24.50
2017-06-23T12:04:10.188Z,24.20
2017-06-23T12:07:02.351Z,24.40
2017-06-23T12:09:29.900Z,24.40
2017-06-23T12:11:57.545Z,24.10
2017-06-23T12:14:25.098Z,24.20
2017-06-23T12:16:53.787Z,24.00
2017-06-23T12:19:21.739Z,23.60
2017-06-23T12:21:49.405Z,23.50
2017-06-23T12:24:16.942Z,23.50
2017-06-23T12:26:44.476Z,23.60
2017-06-23T12:29:12.807Z,23.60
2017-06-23T12:31:40.383Z,23.60
2017-06-23T12:34:07.926Z,23.80
2017-06-23T12:36:35.472Z,24.20
2017-06-23T12:39:03.071Z,24.30
2017-06-23T12:41:31.416Z,24.70
2017-06-23T12:43:59.746Z,24.70
2017-06-23T12:46:27.371Z,25.00
2017-06-23T12:48:55.008Z,25.30
2017-06-23T12:51:22.892Z,25.50
2017-06-23T12:53:50.548Z,26.00
2017-06-23T12:56:18.111Z,26.50
2017-06-23T12:58:45.772Z,26.80
2017-06-23T13:01:13.331Z,26.80
2017-06-23T13:03:40.912Z,27.10
2017-06-23T13:06:08.461Z,27.50
2017-06-23T13:08:36.008Z,27.80
2017-06-23T13:11:03.663Z,28.40
2017-06-23T13:13:31.223Z,28.80
2017-06-23T13:15:58.783Z,28.90
2017-06-23T13:18:26.347Z,29.30
2017-06-23T13:20:53.903Z,29.80
2017-06-23T13:23:21.565Z,30.20
2017-06-23T13:25:49.123Z,30.50
2017-06-23T13:28:17.320Z,30.50
2017-06-23T13:30:47.515Z,30.70
2017-06-23T13:33:15.075Z,30.70
2017-06-23T13:35:43.407Z,30.70
2017-06-23T13:38:11.770Z,29.20
2017-06-23T13:40:40.118Z,28.50
2017-06-23T13:43:07.660Z,28.50
2017-06-23T13:45:35.228Z,28.00
2017-06-23T13:48:02.887Z,27.60
2017-06-23T13:50:30.446Z,27.20
2017-06-23T13:52:58.405Z,27.00
2017-06-23T13:55:25.979Z,27.10
2017-06-23T13:57:53.535Z,27.00
2017-06-23T14:00:21.319Z,26.80
2017-06-23T14:02:48.855Z,26.90
2017-06-23T14:05:16.415Z,27.10
2017-06-23T14:07:43.980Z,27.40
2017-06-23T14:10:11.827Z,27.60
2017-06-23T14:12:39.427Z,27.80
2017-06-23T14:15:07.070Z,27.90
2017-06-23T14:17:34.617Z,28.30
2017-06-23T14:20:02.179Z,28.60
2017-06-23T14:22:29.747Z,28.90
2017-06-23T14:24:57.406Z,28.80
2017-06-23T14:27:24.964Z,28.70
2017-06-23T14:29:52.525Z,28.40
2017-06-23T14:32:20.071Z,28.20
2017-06-23T14:34:47.635Z,28.00
2017-06-23T14:37:15.204Z,28.00
2017-06-23T14:39:42.739Z,28.00
2017-06-23T14:42:10.314Z,28.20
2017-06-23T14:44:38.200Z,27.90
2017-06-23T14:47:05.743Z,27.50
2017-06-23T14:49:33.578Z,27.50
2017-06-23T14:52:01.111Z,27.60
2017-06-23T14:54:29.419Z,27.60
2017-06-23T14:56:57.000Z,27.60
2017-06-23T14:59:24.541Z,27.80
2017-06-23T15:01:52.203Z,28.30
2017-06-23T15:04:19.783Z,28.40
2017-06-23T15:06:47.338Z,28.70
2017-06-23T15:09:15.114Z,29.00
2017-06-23T15:11:42.759Z,29.10
2017-06-23T15:14:10.419Z,29.30
2017-06-23T15:16:37.978Z,29.50
2017-06-23T15:19:05.544Z,29.90
2017-06-23T15:21:33.292Z,30.20
2017-06-23T15:24:00.975Z,30.30
2017-06-23T15:26:28.527Z,30.10
2017-06-23T15:28:56.083Z,30.20
2017-06-23T15:31:23.639Z,30.00
2017-06-23T15:33:51.303Z,30.30
2017-06-23T15:36:18.859Z,30.30
2017-06-23T15:38:46.423Z,30.40
2017-06-23T15:41:13.972Z,30.20
2017-06-23T15:43:41.540Z,30.40
2017-06-23T15:46:11.704Z,30.60
2017-06-23T15:48:39.524Z,30.60
2017-06-23T15:51:08.096Z,30.80
2017-06-23T15:53:36.495Z,30.80
2017-06-23T15:56:04.044Z,30.70
2017-06-23T15:58:31.707Z,30.70
2017-06-23T16:00:59.271Z,30.80
2017-06-23T16:03:26.927Z,30.60
2017-06-23T16:05:55.307Z,30.60
2017-06-23T16:08:22.863Z,30.60
2017-06-23T16:10:50.638Z,30.60
2017-06-23T16:13:18.386Z,30.50
2017-06-23T16:15:46.082Z,30.40
2017-06-23T16:18:13.738Z,30.30
2017-06-23T16:20:41.375Z,30.20
2017-06-23T16:23:09.040Z,30.10
2017-06-23T16:25:36.717Z,29.90
2017-06-23T16:28:04.290Z,29.80
2017-06-23T16:30:31.919Z,29.80
2017-06-23T16:32:59.584Z,30.00
2017-06-23T16:35:27.147Z,30.10
2017-06-23T16:37:54.683Z,30.10
2017-06-23T16:40:22.358Z,29.80
2017-06-23T16:42:50.212Z,29.70
2017-06-23T16:45:18.508Z,29.40
2017-06-23T16:47:46.144Z,29.20
2017-06-23T16:50:13.709Z,28.60
2017-06-23T16:52:41.595Z,28.20
2017-06-23T16:55:09.132Z,28.00
2017-06-23T16:57:36.712Z,27.50
2017-06-23T17:00:04.368Z,27.50
2017-06-23T17:02:31.936Z,27.60
2017-06-23T17:04:59.587Z,28.00
2017-06-23T17:07:27.147Z,28.20
2017-06-23T17:09:54.703Z,28.10
2017-06-23T17:12:22.367Z,27.90
2017-06-23T17:14:50.855Z,27.60
2017-06-23T17:17:18.407Z,27.70
2017-06-23T17:19:45.942Z,27.30
2017-06-23T17:22:13.479Z,27.00
2017-06-23T17:24:41.891Z,26.60
2017-06-23T17:27:09.426Z,26.60
2017-06-23T17:29:37.023Z,26.90
2017-06-23T17:32:04.568Z,26.80
2017-06-23T17:34:32.196Z,26.70
2017-06-23T17:37:00.631Z,27.10
2017-06-23T17:39:29.813Z,27.10
2017-06-23T17:41:57.540Z,27.10
2017-06-23T17:44:25.332Z,26.80
2017-06-23T17:46:52.871Z,26.90
2017-06-23T17:49:21.374Z,26.60
2017-06-23T17:51:48.950Z,26.60
2017-06-23T17:54:16.503Z,26.40
2017-06-23T17:56:44.374Z,26.10
2017-06-23T17:59:12.039Z,26.00
2017-06-23T18:01:39.703Z,26.10
2017-06-23T18:04:07.355Z,26.30
2017-06-23T18:06:34.919Z,26.30
2017-06-23T18:09:02.468Z,26.30
2017-06-23T18:11:30.035Z,26.60
2017-06-23T18:13:57.692Z,26.80
2017-06-23T18:16:25.255Z,27.00
2017-06-23T18:18:52.811Z,27.10
2017-06-23T18:21:20.367Z,27.00
2017-06-23T18:23:47.912Z,27.00
2017-06-23T18:26:15.490Z,27.00
2017-06-23T18:28:43.047Z,27.10
2017-06-23T18:31:10.607Z,27.00
2017-06-23T18:33:38.162Z,27.00
2017-06-23T18:36:05.723Z,26.90
2017-06-23T18:38:33.483Z,26.80
2017-06-23T18:41:01.047Z,26.80
2017-06-23T18:43:28.606Z,26.80
2017-06-23T18:45:56.163Z,26.70
2017-06-23T18:48:23.723Z,26.60
2017-06-23T18:50:51.383Z,26.40
2017-06-23T18:53:18.944Z,26.30
2017-06-23T18:55:46.511Z,26.30
2017-06-23T18:58:14.048Z,26.10
2017-06-23T19:00:41.624Z,26.00
2017-06-23T19:03:09.279Z,25.90
2017-06-23T19:05:36.848Z,25.90
2017-06-23T19:08:04.405Z,25.80
2017-06-23T19:10:31.959Z,25.80
2017-06-23T19:12:59.531Z,25.70
2017-06-23T19:15:27.079Z,25.70
2017-06-23T19:17:54.839Z,25.60
2017-06-23T19:20:22.523Z,25.50
2017-06-23T19:22:50.059Z,25.50
2017-06-23T19:25:17.625Z,25.50
2017-06-23T19:27:45.171Z,25.50
2017-06-23T19:30:12.743Z,25.40
2017-06-23T19:32:40.285Z,25.40
2017-06-23T19:35:07.856Z,25.40
2017-06-23T19:37:35.399Z,25.30
2017-06-23T19:40:03.079Z,25.20
2017-06-23T19:42:30.640Z,25.20
2017-06-23T19:44:58.199Z,25.10
2017-06-23T19:47:25.763Z,25.10
2017-06-23T19:49:53.428Z,25.10
2017-06-23T19:52:21.427Z,25.00
2017-06-23T19:54:49.864Z,24.90
2017-06-23T19:57:17.411Z,24.80
2017-06-23T19:59:45.091Z,24.60
2017-06-23T20:02:12.755Z,24.40
2017-06-23T20:04:40.311Z,24.40
2017-06-23T20:07:07.847Z,24.60
2017-06-23T20:09:35.423Z,24.60
2017-06-23T20:12:02.978Z,24.60
2017-06-23T20:14:30.539Z,24.50
2017-06-23T20:16:58.199Z,24.50
2017-06-23T20:19:25.767Z,24.50
2017-06-23T20:21:53.320Z,24.40
2017-06-23T20:24:20.879Z,24.40
2017-06-23T20:26:48.435Z,24.40
2017-06-23T20:29:16.099Z,24.30
2017-06-23T20:31:43.659Z,24.20
2017-06-23T20:34:11.219Z,24.10
2017-06-23T20:36:38.775Z,24.00
2017-06-23T20:39:06.334Z,24.10
2017-06-23T20:41:34.003Z,23.90
2017-06-23T20:44:01.548Z,23.90
2017-06-23T20:46:29.116Z,24.00
2017-06-23T20:48:56.656Z,24.00
2017-06-23T20:51:24.539Z,24.00
2017-06-23T20:53:52.199Z,24.10
2017-06-23T20:56:19.739Z,24.10
2017-06-23T20:58:47.320Z,24.10
2017-06-23T21:01:14.879Z,24.10
2017-06-23T21:03:42.435Z,24.10
2017-06-23T21:06:10.095Z,24.00
2017-06-23T21:08:37.660Z,24.00
2017-06-23T21:11:05.196Z,23.90
2017-06-23T21:13:32.775Z,23.90
2017-06-23T21:16:00.332Z,23.90
2017-06-23T21:18:27.994Z,23.90
2017-06-23T21:20:55.551Z,24.00
2017-06-23T21:23:23.112Z,24.00
2017-06-23T21:25:50.780Z,24.00
2017-06-23T21:28:18.334Z,23.90
2017-06-23T21:30:45.999Z,23.90
2017-06-23T21:33:13.550Z,23.90
2017-06-23T21:35:41.112Z,23.90
2017-06-23T21:38:08.671Z,23.80
2017-06-23T21:40:48.196Z,23.40
2017-06-23T21:43:15.763Z,23.20
2017-06-23T21:45:43.315Z,22.90
2017-06-23T21:48:10.870Z,23.00
2017-06-23T21:50:38.411Z,23.00
2017-06-23T21:53:06.013Z,23.30
2017-06-23T21:55:33.651Z,23.50
2017-06-23T21:58:01.227Z,23.50
2017-06-23T22:00:28.778Z,23.40
2017-06-23T22:02:56.345Z,23.50
2017-06-23T22:05:24.004Z,23.50
2017-06-23T22:07:51.675Z,23.40
2017-06-23T22:10:19.323Z,23.40
2017-06-23T22:12:46.883Z,23.40
2017-06-23T22:15:14.442Z,23.50
2017-06-23T22:17:42.004Z,23.60
2017-06-23T22:20:09.691Z,23.60
2017-06-23T22:22:37.335Z,23.50
2017-06-23T22:25:04.984Z,23.10
2017-06-23T22:27:32.544Z,23.30
2017-06-23T22:30:00.088Z,23.40
2017-06-23T22:32:27.667Z,23.20
2017-06-23T22:34:55.294Z,23.10
2017-06-23T22:37:22.878Z,22.90
2017-06-23T22:39:50.425Z,22.60
2017-06-23T22:42:17.969Z,22.60
2017-06-23T22:44:45.559Z,22.50
2017-06-23T22:47:13.098Z,22.40
2017-06-23T22:49:40.675Z,22.40
2017-06-23T22:52:08.248Z,22.60
2017-06-23T22:54:35.907Z,22.70
2017-06-23T22:57:03.556Z,22.60
2017-06-23T22:59:31.115Z,22.30
2017-06-23T23:01:58.670Z,22.20
2017-06-23T23:04:26.219Z,22.10
2017-06-23T23:06:53.790Z,22.00
2017-06-23T23:09:21.350Z,22.00
2017-06-23T23:11:48.895Z,22.00
2017-06-23T23:14:16.472Z,22.00
2017-06-23T23:16:44.013Z,21.90
2017-06-23T23:19:11.587Z,22.00
2017-06-23T23:21:39.255Z,21.80
2017-06-23T23:24:06.813Z,22.00
2017-06-23T23:26:34.475Z,22.00
2017-06-23T23:29:02.136Z,21.80
2017-06-23T23:31:29.676Z,21.70
2017-06-23T23:33:57.234Z,21.80
2017-06-23T23:36:24.805Z,22.20
2017-06-23T23:38:52.377Z,22.20
2017-06-23T23:41:20.024Z,21.90
2017-06-23T23:43:47.586Z,21.60
2017-06-23T23:46:15.243Z,21.80
2017-06-23T23:48:42.810Z,22.00
2017-06-23T23:51:10.363Z,21.90
2017-06-23T23:53:37.915Z,21.60
2017-06-23T23:56:05.450Z,21.50
2017-06-23T23:58:33.040Z,21.30
